Ruzgar Bey — H8RW — position and weather

sailwx.info

Track history (hours):
 
Tides and Currents Weather Stations Pressure Air Temp Water Temp Dewpoint Dewpoint Depression Visibility Wind Speed Wind Dir Waves Ship Positions

Ruzgar Bey

Last reported at 2017-Nov-16 09:54 UTC. Time now 2017-Nov-22 21:49 UTC.
Position N 44°57' E 036°29'.

Length 108 m; draft 2.3 m.

Type: Cargo ship. MMSI: 373668000.

Date/timePositionNaut miles runAvg speedWind from/ knotsBaromVisibWave heightAir tempDewpointWater temp
2017-Nov-16 09:54N 44°57' E 036°29'5 7.0
2017-Nov-16 09:09N 45°02' E 036°29'2 7.2
2017-Nov-16 08:52N 45°04' E 036°29'3 7.2
2017-Nov-16 08:30N 45°07' E 036°30'4 7.0
2017-Nov-16 08:00N 45°10' E 036°28'3 6.9
2017-Nov-16 07:30N 45°14' E 036°28'3 6.9
2017-Nov-16 07:00N 45°17' E 036°28'4 7.5
2017-Nov-16 06:30N 45°19' E 036°33'4 8.3
2017-Nov-16 06:00N 45°21' E 036°38'4 7.3
2017-Nov-16 05:30N 45°24' E 036°40'3 6.4
2017-Nov-16 05:00N 45°27' E 036°40'0 0.8
2017-Nov-16 04:30N 45°28' E 036°40'0 0.0
2017-Nov-16 04:00N 45°28' E 036°40'0 0.0
2017-Nov-16 03:30N 45°28' E 036°40'0 0.0
2017-Nov-16 03:00N 45°28' E 036°40'0 0.0
2017-Nov-16 02:30N 45°28' E 036°40'0 0.0
2017-Nov-16 02:00N 45°28' E 036°40'0 0.2
2017-Nov-16 01:30N 45°28' E 036°40'2 4.9
2017-Nov-16 01:00N 45°29' E 036°43'  
Track history (hours):
 
Tides and Currents Weather Stations Pressure Air Temp Water Temp Dewpoint Dewpoint Depression Visibility Wind Speed Wind Dir Waves Ship Positions

Ruzgar Bey

Last reported at 2017-Nov-16 09:54 UTC. Time now 2017-Nov-22 21:49 UTC.
Position N 44°57' E 036°29'.

Length 108 m; draft 2.3 m.

Type: Cargo ship. MMSI: 373668000.

Date/timePositionNaut miles runAvg speedWind from/ knotsBaromVisibWave heightAir tempDewpointWater temp
2017-Nov-16 09:54N 44°57' E 036°29'5 7.0
2017-Nov-16 09:09N 45°02' E 036°29'2 7.2
2017-Nov-16 08:52N 45°04' E 036°29'3 7.2
2017-Nov-16 08:30N 45°07' E 036°30'4 7.0
2017-Nov-16 08:00N 45°10' E 036°28'3 6.9
2017-Nov-16 07:30N 45°14' E 036°28'3 6.9
2017-Nov-16 07:00N 45°17' E 036°28'4 7.5
2017-Nov-16 06:30N 45°19' E 036°33'4 8.3
2017-Nov-16 06:00N 45°21' E 036°38'4 7.3
2017-Nov-16 05:30N 45°24' E 036°40'3 6.4
2017-Nov-16 05:00N 45°27' E 036°40'0 0.8
2017-Nov-16 04:30N 45°28' E 036°40'0 0.0
2017-Nov-16 04:00N 45°28' E 036°40'0 0.0
2017-Nov-16 03:30N 45°28' E 036°40'0 0.0
2017-Nov-16 03:00N 45°28' E 036°40'0 0.0
2017-Nov-16 02:30N 45°28' E 036°40'0 0.0
2017-Nov-16 02:00N 45°28' E 036°40'0 0.2
2017-Nov-16 01:30N 45°28' E 036°40'2 4.9
2017-Nov-16 01:00N 45°29' E 036°43'  

Dump ship's entire track history